Time;durP1;ratioP1;P1;durP2;ratioP2;P2;SDS_P1;SDS_P2;PMS_P1;PMS_P2;Temp;Humidity;BMP_temperature;BMP_pressure;BME280_temperature;BME280_humidity;BME280_pressure;Samples;Min_cycle;Max_cycle;Signal;HPM_P1;HPM_P2
2023/06/01 00:00:09;;;;;;;5.03;2.20;;;;;;;;;;512683;28;1065;-68
2023/06/01 00:00:31;;;;;;;3.70;2.15;;;;;;;;;;512416;28;1300;-68
2023/06/01 00:00:56;;;;;;;4.47;2.30;;;;;;;;;;512663;28;1536;-68
2023/06/01 00:01:12;;;;;;;4.35;2.50;;;;;;;;;;513203;28;1318;-69
2023/06/01 00:01:32;;;;;;;5.38;2.58;;;;;;;;;;512999;28;1144;-68
2023/06/01 00:01:48;;;;;;;4.95;2.38;;;;;;;;;;512034;28;1096;-70
2023/06/01 00:02:05;;;;;;;3.72;2.20;;;;;;;;;;509881;28;1294;-69
2023/06/01 00:02:21;;;;;;;4.45;2.33;;;;;;;;;;509147;28;1636;-68
2023/06/01 00:02:36;;;;;;;4.78;2.35;;;;;;;;;;509838;28;1196;-68
2023/06/01 00:02:52;;;;;;;4.03;2.23;;;;;;;;;;511497;28;1037;-68
2023/06/01 00:03:07;;;;;;;4.55;2.40;;;;;;;;;;509040;28;1453;-68
2023/06/01 00:03:25;;;;;;;4.43;2.47;;;;;;;;;;509738;28;1157;-69
2023/06/01 00:03:53;;;;;;;4.15;2.40;;;;;;;;;;509492;28;1190;-69
2023/06/01 00:04:14;;;;;;;3.92;2.38;;;;;;;;;;512036;28;1405;-68
2023/06/01 00:04:30;;;;;;;3.85;2.40;;;;;;;;;;512450;28;1313;-68
2023/06/01 00:04:48;;;;;;;3.97;2.38;;;;;;;;;;511051;28;1454;-68
2023/06/01 00:05:04;;;;;;;3.45;2.25;;;;;;;;;;511536;28;1574;-69
2023/06/01 00:05:23;;;;;;;3.90;2.28;;;;;;;;;;510901;28;1477;-68
2023/06/01 00:05:38;;;;;;;4.03;2.45;;;;;;;;;;510810;28;1172;-68
2023/06/01 00:06:00;;;;;;;3.53;2.30;;;;;;;;;;511026;28;1041;-68
2023/06/01 00:06:16;;;;;;;4.38;2.15;;;;;;;;;;512279;28;1489;-68
2023/06/01 00:06:31;;;;;;;4.35;2.20;;;;;;;;;;511507;28;1216;-68
2023/06/01 00:06:50;;;;;;;3.30;2.10;;;;;;;;;;512940;28;1322;-68
2023/06/01 00:07:10;;;;;;;3.28;2.20;;;;;;;;;;512137;28;1379;-69
2023/06/01 00:07:25;;;;;;;4.53;2.55;;;;;;;;;;512359;28;1463;-69
2023/06/01 00:07:41;;;;;;;4.53;2.40;;;;;;;;;;512536;28;1241;-69
2023/06/01 00:07:57;;;;;;;3.70;2.25;;;;;;;;;;512338;28;1404;-69
2023/06/01 00:08:12;;;;;;;3.15;2.20;;;;;;;;;;511809;28;963;-69
2023/06/01 00:08:28;;;;;;;4.03;2.20;;;;;;;;;;513800;28;1111;-69
2023/06/01 00:08:44;;;;;;;5.03;2.22;;;;;;;;;;511588;28;1190;-68
2023/06/01 00:08:59;;;;;;;4.63;2.10;;;;;;;;;;509954;28;1457;-68
2023/06/01 00:09:15;;;;;;;4.85;2.25;;;;;;;;;;511028;28;1433;-68
2023/06/01 00:09:34;;;;;;;5.13;2.47;;;;;;;;;;507516;28;1437;-69
2023/06/01 00:09:49;;;;;;;5.53;2.40;;;;;;;;;;508165;28;1473;-68
2023/06/01 00:10:05;;;;;;;4.93;2.30;;;;;;;;;;508575;28;1247;-68
2023/06/01 00:10:21;;;;;;;3.35;2.20;;;;;;;;;;509074;28;1240;-68
2023/06/01 00:10:36;;;;;;;3.10;2.17;;;;;;;;;;507829;28;1305;-68
2023/06/01 00:10:53;;;;;;;3.57;2.30;;;;;;;;;;506847;28;1399;-69
2023/06/01 00:11:09;;;;;;;3.35;2.25;;;;;;;;;;509474;28;1498;-68
2023/06/01 00:11:30;;;;;;;3.90;2.22;;;;;;;;;;512139;28;1153;-68
2023/06/01 00:11:46;;;;;;;4.60;2.30;;;;;;;;;;508254;28;1563;-68
2023/06/01 00:12:02;;;;;;;4.57;2.20;;;;;;;;;;509276;28;1311;-68
2023/06/01 00:12:24;;;;;;;4.07;2.30;;;;;;;;;;507767;28;1397;-68
2023/06/01 00:12:43;;;;;;;3.55;2.25;;;;;;;;;;510300;28;1503;-68
2023/06/01 00:12:59;;;;;;;4.18;2.30;;;;;;;;;;507737;28;1372;-68
2023/06/01 00:13:15;;;;;;;4.82;2.38;;;;;;;;;;507592;28;945;-68
2023/06/01 00:13:31;;;;;;;4.47;2.33;;;;;;;;;;508169;28;1478;-68
2023/06/01 00:13:49;;;;;;;3.90;2.13;;;;;;;;;;510016;28;1080;-68
2023/06/01 00:14:05;;;;;;;3.53;2.10;;;;;;;;;;512410;28;1481;-68
2023/06/01 00:14:23;;;;;;;3.40;2.20;;;;;;;;;;512533;28;1196;-69
2023/06/01 00:14:41;;;;;;;4.95;2.33;;;;;;;;;;510312;28;1327;-68
2023/06/01 00:15:01;;;;;;;5.85;2.50;;;;;;;;;;511866;28;1133;-67
2023/06/01 00:15:17;;;;;;;5.03;2.40;;;;;;;;;;509781;28;1338;-68
2023/06/01 00:15:32;;;;;;;4.80;2.30;;;;;;;;;;509935;28;1318;-68
2023/06/01 00:16:04;;;;;;;;;;;;;;;;;;;;;
2023/06/01 00:16:22;;;;;;;4.60;2.42;;;;;;;;;;512484;28;1089;-68
2023/06/01 00:16:38;;;;;;;4.30;2.50;;;;;;;;;;514553;28;959;-68
2023/06/01 00:16:55;;;;;;;4.90;2.60;;;;;;;;;;512566;28;1586;-68
2023/06/01 00:17:14;;;;;;;4.22;2.40;;;;;;;;;;513484;28;954;-69
2023/06/01 00:17:30;;;;;;;4.30;2.40;;;;;;;;;;513976;28;1270;-68
2023/06/01 00:17:46;;;;;;;4.35;2.50;;;;;;;;;;513115;28;1417;-69
2023/06/01 00:18:02;;;;;;;5.18;2.50;;;;;;;;;;511475;28;1279;-69
2023/06/01 00:18:18;;;;;;;5.45;2.50;;;;;;;;;;510251;28;1360;-68
2023/06/01 00:18:33;;;;;;;4.88;2.50;;;;;;;;;;509467;28;1938;-68
2023/06/01 00:18:52;;;;;;;4.33;2.50;;;;;;;;;;510259;28;1358;-69
2023/06/01 00:19:13;;;;;;;4.45;2.30;;;;;;;;;;511555;28;1354;-68
2023/06/01 00:19:29;;;;;;;3.80;2.17;;;;;;;;;;510016;28;1525;-69
2023/06/01 00:19:45;;;;;;;3.60;2.30;;;;;;;;;;510103;28;1124;-69
2023/06/01 00:20:10;;;;;;;3.93;2.40;;;;;;;;;;512346;28;1264;-68
2023/06/01 00:20:28;;;;;;;3.95;2.22;;;;;;;;;;510978;28;1389;-68
2023/06/01 00:20:46;;;;;;;4.10;2.30;;;;;;;;;;510138;28;1283;-68
2023/06/01 00:21:05;;;;;;;4.43;2.30;;;;;;;;;;508904;28;1338;-70
2023/06/01 00:21:21;;;;;;;4.18;2.25;;;;;;;;;;509032;28;1450;-69
2023/06/01 00:21:57;;;;;;;3.88;2.13;;;;;;;;;;508314;28;1381;-69
2023/06/01 00:22:12;;;;;;;4.10;2.17;;;;;;;;;;509944;28;1351;-69
2023/06/01 00:22:34;;;;;;;3.87;2.27;;;;;;;;;;508676;28;1247;-68
2023/06/01 00:22:52;;;;;;;3.72;2.15;;;;;;;;;;508717;28;1161;-69
2023/06/01 00:23:08;;;;;;;3.75;2.40;;;;;;;;;;510117;28;1166;-69
2023/06/01 00:23:24;;;;;;;3.20;2.33;;;;;;;;;;510001;28;1121;-69
2023/06/01 00:23:40;;;;;;;3.50;2.45;;;;;;;;;;512265;28;958;-69
2023/06/01 00:23:56;;;;;;;3.88;2.40;;;;;;;;;;509921;28;1478;-69
2023/06/01 00:24:12;;;;;;;3.70;2.15;;;;;;;;;;510134;28;1223;-69
2023/06/01 00:24:32;;;;;;;4.05;2.30;;;;;;;;;;512405;28;1005;-69
2023/06/01 00:24:51;;;;;;;4.38;2.30;;;;;;;;;;510360;28;1293;-69
2023/06/01 00:25:10;;;;;;;4.50;2.47;;;;;;;;;;510815;28;1231;-69
2023/06/01 00:25:28;;;;;;;3.92;2.50;;;;;;;;;;511155;28;1144;-68
2023/06/01 00:25:47;;;;;;;4.80;2.33;;;;;;;;;;512006;28;1348;-68
2023/06/01 00:26:03;;;;;;;5.20;2.33;;;;;;;;;;511734;28;1301;-69
2023/06/01 00:26:18;;;;;;;4.72;2.50;;;;;;;;;;512353;28;1247;-69
2023/06/01 00:26:34;;;;;;;4.53;2.60;;;;;;;;;;512226;28;1393;-69
2023/06/01 00:26:50;;;;;;;3.75;2.38;;;;;;;;;;513184;28;1062;-69
2023/06/01 00:27:08;;;;;;;4.45;2.33;;;;;;;;;;508937;28;1172;-68
2023/06/01 00:27:24;;;;;;;5.00;2.50;;;;;;;;;;510629;28;1207;-69
2023/06/01 00:27:40;;;;;;;4.90;2.33;;;;;;;;;;511982;28;1497;-69
2023/06/01 00:27:58;;;;;;;5.33;2.20;;;;;;;;;;512224;28;1120;-68
2023/06/01 00:28:14;;;;;;;5.43;2.50;;;;;;;;;;512250;28;1564;-68
2023/06/01 00:28:50;;;;;;;4.93;2.63;;;;;;;;;;511367;28;1379;-70
2023/06/01 00:29:08;;;;;;;6.07;2.47;;;;;;;;;;513153;28;1254;-69
2023/06/01 00:29:24;;;;;;;4.82;2.28;;;;;;;;;;515029;28;1097;-68
2023/06/01 00:29:42;;;;;;;4.10;2.30;;;;;;;;;;512098;28;1401;-69
2023/06/01 00:30:01;;;;;;;4.00;2.30;;;;;;;;;;512348;28;1324;-68
2023/06/01 00:30:17;;;;;;;3.80;2.30;;;;;;;;;;511582;28;1389;-69
2023/06/01 00:30:37;;;;;;;3.35;2.08;;;;;;;;;;511727;28;1117;-69
2023/06/01 00:30:53;;;;;;;4.25;2.22;;;;;;;;;;511416;28;1306;-69
2023/06/01 00:31:17;;;;;;;5.85;2.40;;;;;;;;;;512014;28;938;-68
2023/06/01 00:31:33;;;;;;;4.45;2.40;;;;;;;;;;511418;28;1219;-69
2023/06/01 00:31:49;;;;;;;4.00;2.35;;;;;;;;;;512036;28;1323;-69
2023/06/01 00:32:06;;;;;;;4.97;2.45;;;;;;;;;;512127;28;1104;-69
2023/06/01 00:32:21;;;;;;;5.10;2.47;;;;;;;;;;512492;28;1282;-69
2023/06/01 00:32:39;;;;;;;5.88;2.50;;;;;;;;;;510259;28;1275;-69
2023/06/01 00:32:55;;;;;;;5.40;2.35;;;;;;;;;;510760;28;1188;-69
2023/06/01 00:33:10;;;;;;;4.28;2.40;;;;;;;;;;508923;28;1756;-68
2023/06/01 00:33:26;;;;;;;3.60;2.57;;;;;;;;;;509486;28;1324;-69
2023/06/01 00:33:42;;;;;;;3.75;2.50;;;;;;;;;;512128;28;1559;-68
2023/06/01 00:34:03;;;;;;;3.90;2.42;;;;;;;;;;511038;28;1400;-69
2023/06/01 00:34:22;;;;;;;4.47;2.70;;;;;;;;;;509950;28;1453;-69
2023/06/01 00:34:38;;;;;;;4.07;2.63;;;;;;;;;;510773;28;1305;-69
2023/06/01 00:34:53;;;;;;;5.20;2.80;;;;;;;;;;510742;28;1373;-69
2023/06/01 00:35:09;;;;;;;4.83;2.63;;;;;;;;;;510688;28;1385;-68
2023/06/01 00:35:28;;;;;;;3.35;2.40;;;;;;;;;;512859;28;1271;-69
2023/06/01 00:35:52;;;;;;;3.90;2.40;;;;;;;;;;512838;28;1439;-69
2023/06/01 00:36:11;;;;;;;4.07;2.28;;;;;;;;;;512830;28;1082;-68
2023/06/01 00:36:31;;;;;;;3.60;2.30;;;;;;;;;;513313;28;1679;-69
2023/06/01 00:36:47;;;;;;;4.15;2.30;;;;;;;;;;513869;28;1080;-68
2023/06/01 00:37:02;;;;;;;3.15;2.30;;;;;;;;;;513157;28;1001;-69
2023/06/01 00:37:28;;;;;;;3.17;2.20;;;;;;;;;;514497;28;927;-69
2023/06/01 00:37:46;;;;;;;4.18;2.40;;;;;;;;;;514208;28;1464;-68
2023/06/01 00:38:02;;;;;;;5.05;2.40;;;;;;;;;;512773;28;1491;-69
2023/06/01 00:38:20;;;;;;;4.13;2.38;;;;;;;;;;513425;28;1105;-69
2023/06/01 00:38:36;;;;;;;4.50;2.30;;;;;;;;;;511535;28;1953;-69
2023/06/01 00:39:01;;;;;;;4.78;2.40;;;;;;;;;;512410;28;943;-69
2023/06/01 00:39:20;;;;;;;3.90;2.50;;;;;;;;;;511511;28;978;-69
2023/06/01 00:39:38;;;;;;;3.45;2.40;;;;;;;;;;513024;28;1049;-69
2023/06/01 00:39:56;;;;;;;3.30;2.53;;;;;;;;;;515416;28;1056;-68
2023/06/01 00:40:12;;;;;;;4.13;2.50;;;;;;;;;;515021;28;1509;-68
2023/06/01 00:40:28;;;;;;;4.22;2.38;;;;;;;;;;513822;28;1366;-69
2023/06/01 00:40:43;;;;;;;4.57;2.55;;;;;;;;;;513976;28;940;-68
2023/06/01 00:41:01;;;;;;;4.97;2.80;;;;;;;;;;513187;28;1362;-68
2023/06/01 00:42:01;;;;;;;3.78;2.50;;;;;;;;;;513408;28;1327;-69
2023/06/01 00:42:17;;;;;;;4.32;2.40;;;;;;;;;;507865;28;1388;-69
2023/06/01 00:42:33;;;;;;;4.63;2.33;;;;;;;;;;508329;28;1312;-69
2023/06/01 00:42:48;;;;;;;4.30;2.30;;;;;;;;;;511130;28;1383;-69
2023/06/01 00:43:13;;;;;;;3.57;2.20;;;;;;;;;;511928;28;1224;-69
2023/06/01 00:43:38;;;;;;;4.70;2.33;;;;;;;;;;513215;28;1140;-69
2023/06/01 00:43:53;;;;;;;4.45;2.50;;;;;;;;;;510221;28;1522;-69
2023/06/01 00:44:09;;;;;;;4.30;2.47;;;;;;;;;;508367;28;1328;-69
2023/06/01 00:44:27;;;;;;;5.05;2.35;;;;;;;;;;509096;28;1275;-69
2023/06/01 00:44:45;;;;;;;5.05;2.40;;;;;;;;;;508293;28;1287;-69
2023/06/01 00:45:04;;;;;;;4.55;2.40;;;;;;;;;;510288;28;1299;-68
2023/06/01 00:45:20;;;;;;;4.18;2.40;;;;;;;;;;511688;28;1471;-69
2023/06/01 00:45:37;;;;;;;4.18;2.58;;;;;;;;;;511802;28;1123;-69
2023/06/01 00:45:53;;;;;;;4.53;2.50;;;;;;;;;;512262;28;1500;-68
2023/06/01 00:46:14;;;;;;;5.00;2.30;;;;;;;;;;512068;28;990;-68
2023/06/01 00:46:30;;;;;;;4.03;2.42;;;;;;;;;;509817;28;1362;-68
2023/06/01 00:46:50;;;;;;;5.37;2.50;;;;;;;;;;509454;28;1205;-68
2023/06/01 00:47:07;;;;;;;4.22;2.50;;;;;;;;;;511803;28;1556;-69
2023/06/01 00:47:25;;;;;;;4.55;2.60;;;;;;;;;;514423;28;938;-69
2023/06/01 00:47:42;;;;;;;4.75;2.53;;;;;;;;;;514190;28;1401;-68
2023/06/01 00:47:59;;;;;;;4.22;2.60;;;;;;;;;;513494;28;1245;-68
2023/06/01 00:48:15;;;;;;;3.55;2.40;;;;;;;;;;511209;28;1365;-69
2023/06/01 00:48:31;;;;;;;4.28;2.40;;;;;;;;;;513469;28;1375;-68
2023/06/01 00:48:47;;;;;;;4.03;2.40;;;;;;;;;;510894;28;1294;-69
2023/06/01 00:49:03;;;;;;;3.33;2.30;;;;;;;;;;510087;28;1191;-69
2023/06/01 00:49:18;;;;;;;3.03;2.30;;;;;;;;;;511453;28;1305;-69
2023/06/01 00:49:36;;;;;;;3.67;2.30;;;;;;;;;;510805;28;1311;-69
2023/06/01 00:49:52;;;;;;;4.90;2.60;;;;;;;;;;509979;28;1346;-69
2023/06/01 00:50:12;;;;;;;5.53;2.70;;;;;;;;;;508360;28;1274;-70
2023/06/01 00:50:33;;;;;;;4.78;2.80;;;;;;;;;;508649;28;1482;-68
2023/06/01 00:50:50;;;;;;;4.15;2.40;;;;;;;;;;512115;28;1191;-68
2023/06/01 00:51:08;;;;;;;4.55;2.38;;;;;;;;;;512346;28;1200;-68
2023/06/01 00:51:29;;;;;;;4.65;2.50;;;;;;;;;;509862;28;1459;-68
2023/06/01 00:51:48;;;;;;;5.55;2.40;;;;;;;;;;511236;28;1314;-68
2023/06/01 00:52:07;;;;;;;5.38;2.42;;;;;;;;;;511249;28;1432;-68
2023/06/01 00:52:28;;;;;;;4.97;2.55;;;;;;;;;;514145;28;1135;-69
2023/06/01 00:52:45;;;;;;;5.40;2.40;;;;;;;;;;515815;28;1047;-69
2023/06/01 00:53:05;;;;;;;4.97;2.47;;;;;;;;;;515291;28;976;-68
2023/06/01 00:53:20;;;;;;;4.45;2.40;;;;;;;;;;514361;28;1492;-69
2023/06/01 00:53:36;;;;;;;5.35;2.40;;;;;;;;;;515091;28;1021;-70
2023/06/01 00:53:52;;;;;;;6.37;2.43;;;;;;;;;;513180;28;1543;-68
2023/06/01 00:54:11;;;;;;;5.88;2.35;;;;;;;;;;511824;28;1219;-68
2023/06/01 00:54:34;;;;;;;5.68;2.60;;;;;;;;;;510343;28;1302;-68
2023/06/01 00:54:50;;;;;;;5.47;2.60;;;;;;;;;;510594;28;1010;-68
2023/06/01 00:55:06;;;;;;;3.37;2.40;;;;;;;;;;507631;28;1371;-68
2023/06/01 00:55:24;;;;;;;3.70;2.42;;;;;;;;;;511541;28;1113;-68
2023/06/01 00:55:40;;;;;;;4.45;2.55;;;;;;;;;;508565;28;1295;-68
2023/06/01 00:55:55;;;;;;;5.43;2.55;;;;;;;;;;510866;28;1278;-68
2023/06/01 00:56:12;;;;;;;4.73;2.40;;;;;;;;;;510387;28;1396;-68
2023/06/01 00:56:28;;;;;;;4.30;2.40;;;;;;;;;;511456;28;967;-69
2023/06/01 00:56:44;;;;;;;3.70;2.50;;;;;;;;;;512077;28;1649;-69
2023/06/01 00:57:02;;;;;;;3.55;2.45;;;;;;;;;;509576;28;1417;-68
2023/06/01 00:57:20;;;;;;;5.50;2.50;;;;;;;;;;508286;28;1282;-68
2023/06/01 00:57:38;;;;;;;5.95;2.47;;;;;;;;;;507074;28;1055;-68
2023/06/01 00:58:02;;;;;;;4.18;2.38;;;;;;;;;;508988;28;1352;-68
2023/06/01 00:58:18;;;;;;;4.38;2.70;;;;;;;;;;509373;28;1275;-68
2023/06/01 00:58:34;;;;;;;4.80;2.57;;;;;;;;;;511439;28;1945;-69
2023/06/01 00:58:52;;;;;;;6.13;2.50;;;;;;;;;;509429;28;1543;-68
2023/06/01 00:59:08;;;;;;;5.53;2.47;;;;;;;;;;507671;28;1320;-68
2023/06/01 00:59:24;;;;;;;6.10;2.50;;;;;;;;;;506103;28;1302;-68
2023/06/01 00:59:40;;;;;;;5.80;2.70;;;;;;;;;;505188;28;981;-69
2023/06/01 00:59:59;;;;;;;4.60;2.55;;;;;;;;;;507540;28;1251;-68
2023/06/01 01:00:18;;;;;;;3.83;2.40;;;;;;;;;;509644;28;1395;-68
2023/06/01 01:00:41;;;;;;;4.57;2.50;;;;;;;;;;510102;28;1514;-68
2023/06/01 01:01:07;;;;;;;5.03;2.60;;;;;;;;;;510011;28;1210;-68
2023/06/01 01:01:28;;;;;;;4.18;2.50;;;;;;;;;;363573;28;10000425;-68
2023/06/01 01:01:44;;;;;;;4.53;2.50;;;;;;;;;;512219;28;1276;-68
2023/06/01 01:02:04;;;;;;;5.03;2.60;;;;;;;;;;512363;28;1347;-68
2023/06/01 01:02:21;;;;;;;4.07;2.70;;;;;;;;;;511732;28;1420;-68
2023/06/01 01:02:41;;;;;;;3.90;2.67;;;;;;;;;;510206;28;1334;-68
2023/06/01 01:03:08;;;;;;;5.07;2.65;;;;;;;;;;508591;28;1691;-68
2023/06/01 01:03:25;;;;;;;4.28;2.40;;;;;;;;;;510207;28;1525;-69
2023/06/01 01:03:44;;;;;;;3.90;2.30;;;;;;;;;;510235;28;1476;-68
2023/06/01 01:04:00;;;;;;;3.42;2.20;;;;;;;;;;512043;28;1295;-69
2023/06/01 01:04:25;;;;;;;4.10;2.30;;;;;;;;;;510110;28;1557;-67
2023/06/01 01:04:44;;;;;;;4.07;2.58;;;;;;;;;;511842;28;1492;-68
2023/06/01 01:05:02;;;;;;;3.80;2.63;;;;;;;;;;511951;28;1382;-69
2023/06/01 01:05:19;;;;;;;4.10;2.50;;;;;;;;;;511962;28;1481;-68
2023/06/01 01:05:44;;;;;;;5.13;2.50;;;;;;;;;;510478;28;1528;-69
2023/06/01 01:06:28;;;;;;;4.47;2.47;;;;;;;;;;511157;28;972;-68
2023/06/01 01:06:48;;;;;;;3.97;2.33;;;;;;;;;;511183;28;1096;-68
2023/06/01 01:07:22;;;;;;;4.55;2.42;;;;;;;;;;510442;28;1449;-68
2023/06/01 01:07:47;;;;;;;4.25;2.40;;;;;;;;;;512170;28;1219;-68
2023/06/01 01:08:27;;;;;;;6.18;2.55;;;;;;;;;;512173;28;1387;-68
2023/06/01 01:08:58;;;;;;;4.93;2.67;;;;;;;;;;514255;28;1323;-68
2023/06/01 01:09:26;;;;;;;4.13;2.42;;;;;;;;;;511946;28;1347;-68
2023/06/01 01:09:46;;;;;;;4.40;2.40;;;;;;;;;;513902;28;1103;-68
2023/06/01 01:10:13;;;;;;;4.47;2.50;;;;;;;;;;513714;28;1607;-68
2023/06/01 01:10:45;;;;;;;4.03;2.63;;;;;;;;;;511077;28;1381;-69
2023/06/01 01:11:15;;;;;;;4.53;2.60;;;;;;;;;;511805;28;1490;-68
2023/06/01 01:11:33;;;;;;;5.25;2.60;;;;;;;;;;512210;28;1358;-68
2023/06/01 01:12:00;;;;;;;5.47;2.55;;;;;;;;;;511672;28;1358;-68
2023/06/01 01:12:24;;;;;;;4.22;2.30;;;;;;;;;;510250;28;1403;-68
2023/06/01 01:13:32;;;;;;;5.05;2.40;;;;;;;;;;511348;28;1199;-68
2023/06/01 01:14:05;;;;;;;5.78;2.72;;;;;;;;;;508074;28;1336;-69
2023/06/01 01:14:33;;;;;;;6.43;2.90;;;;;;;;;;508408;28;1437;-67
2023/06/01 01:15:04;;;;;;;5.10;2.70;;;;;;;;;;505554;28;1304;-68
2023/06/01 01:15:41;;;;;;;5.18;2.50;;;;;;;;;;505054;28;1281;-69
2023/06/01 01:16:40;;;;;;;3.42;2.30;;;;;;;;;;505847;28;1407;-68
2023/06/01 01:17:02;;;;;;;4.07;2.55;;;;;;;;;;505324;28;979;-69
2023/06/01 01:17:33;;;;;;;4.13;2.40;;;;;;;;;;507170;28;1209;-69
2023/06/01 01:17:54;;;;;;;4.55;2.40;;;;;;;;;;505460;28;1316;-69
2023/06/01 01:18:37;;;;;;;4.28;2.50;;;;;;;;;;505218;28;1886;-69
2023/06/01 01:18:58;;;;;;;4.53;2.70;;;;;;;;;;507776;28;1186;-69
2023/06/01 01:19:35;;;;;;;4.05;2.30;;;;;;;;;;507895;28;1849;-70
2023/06/01 01:20:08;;;;;;;4.38;2.55;;;;;;;;;;507564;28;979;-69
2023/06/01 01:20:48;;;;;;;4.10;2.42;;;;;;;;;;508164;28;1058;-70
2023/06/01 01:21:21;;;;;;;3.22;2.15;;;;;;;;;;507622;28;1325;-71
2023/06/01 01:21:42;;;;;;;6.90;2.50;;;;;;;;;;508329;28;1414;-69
2023/06/01 01:22:26;;;;;;;5.72;2.45;;;;;;;;;;504978;28;1316;-70
2023/06/01 01:22:47;;;;;;;5.85;2.53;;;;;;;;;;504092;28;1380;-70
2023/06/01 01:23:11;;;;;;;5.07;2.70;;;;;;;;;;504066;28;1387;-70
2023/06/01 01:24:06;;;;;;;6.68;2.90;;;;;;;;;;504030;28;1059;-70
2023/06/01 01:24:31;;;;;;;4.95;2.65;;;;;;;;;;499929;29;1670;-69
2023/06/01 01:25:25;;;;;;;6.32;2.60;;;;;;;;;;500562;29;1522;-70
2023/06/01 01:26:12;;;;;;;3.97;2.53;;;;;;;;;;509174;28;948;-70
2023/06/01 01:26:52;;;;;;;5.03;2.53;;;;;;;;;;509635;28;1398;-69
2023/06/01 01:27:16;;;;;;;4.40;2.65;;;;;;;;;;508817;28;1374;-69
2023/06/01 01:27:51;;;;;;;4.22;2.60;;;;;;;;;;509263;28;993;-70
2023/06/01 01:28:41;;;;;;;5.85;2.78;;;;;;;;;;505789;28;1253;-69
2023/06/01 01:29:01;;;;;;;4.85;2.53;;;;;;;;;;504483;28;1751;-69
2023/06/01 01:29:21;;;;;;;5.13;2.50;;;;;;;;;;506290;28;1150;-69
2023/06/01 01:29:37;;;;;;;5.10;2.67;;;;;;;;;;505836;28;1107;-69
2023/06/01 01:30:01;;;;;;;4.80;2.70;;;;;;;;;;506325;28;1321;-69
2023/06/01 01:30:21;;;;;;;3.85;2.53;;;;;;;;;;505846;28;1308;-69
2023/06/01 01:30:41;;;;;;;5.03;2.58;;;;;;;;;;508093;28;1477;-69
2023/06/01 01:30:59;;;;;;;5.70;2.60;;;;;;;;;;508909;28;1389;-70
2023/06/01 01:31:18;;;;;;;5.07;2.60;;;;;;;;;;509278;28;1406;-69
2023/06/01 01:31:34;;;;;;;4.45;2.50;;;;;;;;;;507494;28;1426;-70
2023/06/01 01:31:54;;;;;;;4.97;2.53;;;;;;;;;;504312;28;1205;-70
2023/06/01 01:32:16;;;;;;;4.95;2.50;;;;;;;;;;504103;28;1011;-70
2023/06/01 01:32:35;;;;;;;4.88;2.53;;;;;;;;;;502351;28;1359;-69
2023/06/01 01:33:11;;;;;;;5.00;2.60;;;;;;;;;;504188;28;1465;-69
2023/06/01 01:33:51;;;;;;;4.20;2.45;;;;;;;;;;498664;29;1476;-69
2023/06/01 01:34:09;;;;;;;5.32;2.70;;;;;;;;;;501574;28;1291;-70
2023/06/01 01:34:28;;;;;;;5.03;2.70;;;;;;;;;;504198;28;1304;-70
2023/06/01 01:34:45;;;;;;;4.93;2.65;;;;;;;;;;505347;28;1483;-69
2023/06/01 01:35:08;;;;;;;5.57;2.80;;;;;;;;;;503093;28;1564;-70
2023/06/01 01:35:27;;;;;;;4.70;2.72;;;;;;;;;;503477;28;1380;-70
2023/06/01 01:35:50;;;;;;;5.15;2.80;;;;;;;;;;504683;28;1189;-69
2023/06/01 01:36:15;;;;;;;4.75;2.70;;;;;;;;;;504987;28;1386;-69
2023/06/01 01:36:33;;;;;;;5.00;2.70;;;;;;;;;;506290;28;1394;-70
2023/06/01 01:36:48;;;;;;;4.63;2.60;;;;;;;;;;503812;28;1442;-69
2023/06/01 01:37:04;;;;;;;4.63;2.55;;;;;;;;;;507933;28;1413;-69
2023/06/01 01:37:29;;;;;;;5.35;2.67;;;;;;;;;;507557;28;1285;-70
2023/06/01 01:37:54;;;;;;;6.93;3.03;;;;;;;;;;505757;28;1498;-70
2023/06/01 01:38:10;;;;;;;6.32;2.88;;;;;;;;;;508002;28;1438;-69
2023/06/01 01:38:26;;;;;;;5.25;2.72;;;;;;;;;;503680;28;1344;-69
2023/06/01 01:38:41;;;;;;;4.28;2.90;;;;;;;;;;502740;28;1986;-70
2023/06/01 01:38:59;;;;;;;3.80;2.70;;;;;;;;;;501019;28;1646;-70
2023/06/01 01:39:20;;;;;;;3.67;2.60;;;;;;;;;;500676;28;1336;-69
2023/06/01 01:39:36;;;;;;;4.90;2.70;;;;;;;;;;500348;28;1356;-69
2023/06/01 01:39:52;;;;;;;5.60;2.77;;;;;;;;;;500874;28;1515;-70
2023/06/01 01:40:11;;;;;;;5.18;2.78;;;;;;;;;;499480;29;1630;-69
2023/06/01 01:40:32;;;;;;;4.72;2.70;;;;;;;;;;501569;29;1413;-70
2023/06/01 01:40:49;;;;;;;4.68;2.60;;;;;;;;;;502418;28;1367;-70
2023/06/01 01:41:07;;;;;;;5.05;2.70;;;;;;;;;;501864;28;1287;-69
2023/06/01 01:41:23;;;;;;;5.28;2.80;;;;;;;;;;501807;28;1127;-70
2023/06/01 01:41:42;;;;;;;5.38;2.80;;;;;;;;;;501951;28;1140;-70
2023/06/01 01:42:03;;;;;;;5.00;2.60;;;;;;;;;;501822;28;1353;-69
2023/06/01 01:42:19;;;;;;;6.30;2.75;;;;;;;;;;503005;28;1011;-70
2023/06/01 01:42:35;;;;;;;6.07;2.90;;;;;;;;;;502971;28;1374;-69
2023/06/01 01:42:52;;;;;;;5.60;2.70;;;;;;;;;;503435;28;1055;-69
2023/06/01 01:43:08;;;;;;;5.30;2.60;;;;;;;;;;505275;28;1154;-69
2023/06/01 01:43:26;;;;;;;5.97;2.72;;;;;;;;;;502849;28;1315;-69
2023/06/01 01:43:43;;;;;;;5.65;2.42;;;;;;;;;;502966;28;1436;-69
2023/06/01 01:44:03;;;;;;;6.18;2.70;;;;;;;;;;503144;28;1363;-70
2023/06/01 01:44:19;;;;;;;4.97;2.80;;;;;;;;;;503864;28;1341;-69
2023/06/01 01:44:37;;;;;;;4.05;2.65;;;;;;;;;;503738;28;1655;-70
2023/06/01 01:44:53;;;;;;;4.13;2.67;;;;;;;;;;504139;28;1098;-69
2023/06/01 01:45:09;;;;;;;4.43;2.70;;;;;;;;;;503795;28;1347;-69
2023/06/01 01:45:28;;;;;;;4.30;2.70;;;;;;;;;;503838;28;1312;-69
2023/06/01 01:45:56;;;;;;;4.18;2.80;;;;;;;;;;510564;28;1444;-69
2023/06/01 01:46:25;;;;;;;5.35;2.90;;;;;;;;;;511789;28;1124;-69
2023/06/01 01:47:04;;;;;;;4.88;2.58;;;;;;;;;;509915;28;1401;-69
2023/06/01 01:47:21;;;;;;;5.22;2.90;;;;;;;;;;513893;28;1029;-70
2023/06/01 01:48:11;;;;;;;4.80;2.58;;;;;;;;;;513440;28;1468;-70
2023/06/01 01:48:47;;;;;;;5.00;2.70;;;;;;;;;;514596;28;1203;-70
2023/06/01 01:49:28;;;;;;;4.75;2.67;;;;;;;;;;516115;28;1095;-69
2023/06/01 01:49:48;;;;;;;3.88;2.47;;;;;;;;;;513291;28;1495;-69
2023/06/01 01:50:12;;;;;;;4.57;2.75;;;;;;;;;;511722;28;1522;-70
2023/06/01 01:50:32;;;;;;;5.53;2.75;;;;;;;;;;512439;28;1482;-70
2023/06/01 01:50:59;;;;;;;5.18;2.70;;;;;;;;;;510386;28;1198;-70
2023/06/01 01:51:46;;;;;;;4.75;2.63;;;;;;;;;;509325;28;1375;-70
2023/06/01 01:52:18;;;;;;;4.90;2.60;;;;;;;;;;509487;28;1218;-70
2023/06/01 01:52:41;;;;;;;4.82;2.55;;;;;;;;;;509895;28;1445;-70
2023/06/01 01:52:57;;;;;;;4.22;2.60;;;;;;;;;;510327;28;1504;-69
2023/06/01 01:53:20;;;;;;;5.28;2.78;;;;;;;;;;511738;28;1017;-69
2023/06/01 01:53:39;;;;;;;3.88;2.67;;;;;;;;;;511990;28;1509;-69
2023/06/01 01:53:57;;;;;;;5.57;2.78;;;;;;;;;;509876;28;1356;-69
2023/06/01 01:54:17;;;;;;;5.43;2.90;;;;;;;;;;511703;28;1381;-69
2023/06/01 01:54:42;;;;;;;4.43;2.63;;;;;;;;;;511191;28;1378;-69
2023/06/01 01:55:01;;;;;;;3.50;2.58;;;;;;;;;;510626;28;1472;-68
2023/06/01 01:55:23;;;;;;;5.20;2.83;;;;;;;;;;511870;28;1287;-68
2023/06/01 01:55:42;;;;;;;4.72;2.85;;;;;;;;;;508571;28;1557;-69
2023/06/01 01:55:59;;;;;;;4.97;3.00;;;;;;;;;;511056;28;1124;-70
2023/06/01 01:56:18;;;;;;;5.70;3.00;;;;;;;;;;511248;28;1435;-69
2023/06/01 01:56:37;;;;;;;4.50;2.80;;;;;;;;;;510266;28;1440;-68
2023/06/01 01:56:56;;;;;;;4.05;2.70;;;;;;;;;;509176;28;1452;-69
2023/06/01 01:57:36;;;;;;;4.35;2.80;;;;;;;;;;506772;28;1448;-69
2023/06/01 01:57:53;;;;;;;4.65;2.80;;;;;;;;;;505116;28;1541;-68
2023/06/01 01:58:32;;;;;;;4.13;2.80;;;;;;;;;;507457;28;1501;-69
2023/06/01 01:58:50;;;;;;;4.03;2.42;;;;;;;;;;501361;28;2006;-68
2023/06/01 01:59:09;;;;;;;3.85;2.42;;;;;;;;;;508834;28;1293;-68
2023/06/01 01:59:26;;;;;;;4.50;2.70;;;;;;;;;;509345;28;1385;-68
2023/06/01 01:59:45;;;;;;;3.45;2.50;;;;;;;;;;506966;28;1408;-69
2023/06/01 02:00:07;;;;;;;3.75;2.50;;;;;;;;;;509637;28;1326;-68
2023/06/01 02:00:26;;;;;;;4.80;2.67;;;;;;;;;;507827;28;1351;-68
2023/06/01 02:00:43;;;;;;;4.93;2.90;;;;;;;;;;511289;28;1503;-68
2023/06/01 02:00:59;;;;;;;5.20;2.85;;;;;;;;;;509720;28;1540;-68
2023/06/01 02:01:19;;;;;;;5.68;2.88;;;;;;;;;;508693;28;1420;-68
2023/06/01 02:01:36;;;;;;;5.85;2.83;;;;;;;;;;511225;28;1477;-68
2023/06/01 02:01:51;;;;;;;4.65;2.60;;;;;;;;;;510416;28;1185;-68
2023/06/01 02:02:07;;;;;;;4.55;2.88;;;;;;;;;;510736;28;1407;-68
2023/06/01 02:02:23;;;;;;;7.15;3.17;;;;;;;;;;508008;28;1370;-68
2023/06/01 02:02:50;;;;;;;7.13;3.10;;;;;;;;;;508745;28;1147;-68
2023/06/01 02:03:13;;;;;;;3.83;2.53;;;;;;;;;;509223;28;1233;-69
2023/06/01 02:03:28;;;;;;;4.38;2.50;;;;;;;;;;507168;28;1579;-68
2023/06/01 02:03:47;;;;;;;6.00;2.80;;;;;;;;;;507993;28;1312;-68
2023/06/01 02:04:07;;;;;;;5.47;3.00;;;;;;;;;;508840;28;1267;-69
2023/06/01 02:04:23;;;;;;;5.13;2.80;;;;;;;;;;511893;28;1196;-69
2023/06/01 02:04:45;;;;;;;4.50;2.80;;;;;;;;;;511671;28;1382;-69
2023/06/01 02:05:02;;;;;;;5.90;2.80;;;;;;;;;;513331;28;1322;-68
2023/06/01 02:05:21;;;;;;;5.93;2.80;;;;;;;;;;511749;28;1565;-69
2023/06/01 02:05:42;;;;;;;4.93;2.88;;;;;;;;;;510604;28;1295;-69
2023/06/01 02:06:00;;;;;;;4.10;2.67;;;;;;;;;;511599;28;1660;-69
2023/06/01 02:06:23;;;;;;;4.85;2.50;;;;;;;;;;512036;28;1280;-69
2023/06/01 02:06:48;;;;;;;4.38;2.60;;;;;;;;;;514361;28;1295;-69
2023/06/01 02:07:07;;;;;;;3.47;2.50;;;;;;;;;;516102;28;1290;-69
2023/06/01 02:07:28;;;;;;;4.18;2.70;;;;;;;;;;515190;28;915;-69
2023/06/01 02:07:45;;;;;;;5.00;2.70;;;;;;;;;;513114;28;1357;-69
2023/06/01 02:08:03;;;;;;;5.90;2.90;;;;;;;;;;509447;28;1349;-69
2023/06/01 02:08:21;;;;;;;5.40;2.70;;;;;;;;;;509344;28;1347;-69
2023/06/01 02:08:58;;;;;;;4.15;2.45;;;;;;;;;;511619;28;1336;-69